createdAt,value
2019-03-06T00:01:55.525Z,100774.75
2019-03-06T00:04:23.516Z,100770.62
2019-03-06T00:06:51.334Z,100772.02
2019-03-06T00:09:19.299Z,100763.63
2019-03-06T00:11:47.084Z,100759.86
2019-03-06T00:14:14.873Z,100758.10
2019-03-06T00:16:42.809Z,100750.58
2019-03-06T00:19:10.914Z,100757.24
2019-03-06T00:21:38.715Z,100751.09
2019-03-06T00:24:06.624Z,100745.87
2019-03-06T00:26:34.603Z,100745.20
2019-03-06T00:29:02.400Z,100744.48
2019-03-06T00:31:30.177Z,100746.35
2019-03-06T00:33:58.065Z,100740.81
2019-03-06T00:36:27.238Z,100734.98
2019-03-06T00:38:55.044Z,100732.11
2019-03-06T00:41:37.744Z,100731.48
2019-03-06T00:44:05.522Z,100726.44
2019-03-06T00:46:33.439Z,100716.91
2019-03-06T00:49:01.521Z,100711.52
2019-03-06T00:51:29.325Z,100713.53
2019-03-06T00:54:01.295Z,100716.22
2019-03-06T00:56:29.123Z,100711.37
2019-03-06T00:58:57.087Z,100708.39
2019-03-06T01:01:24.987Z,100700.53
2019-03-06T01:03:53.136Z,100694.60
2019-03-06T01:06:40.482Z,100686.26
2019-03-06T01:09:08.936Z,100687.92
2019-03-06T01:11:36.923Z,100692.94
2019-03-06T01:14:06.113Z,100685.77
2019-03-06T01:16:33.919Z,100676.63
2019-03-06T01:19:01.865Z,100683.41
2019-03-06T01:21:29.695Z,100680.70
2019-03-06T01:23:57.711Z,100684.63
2019-03-06T01:26:25.487Z,100681.08
2019-03-06T01:28:53.291Z,100683.33
2019-03-06T01:31:21.414Z,100676.55
2019-03-06T01:34:14.963Z,100670.40
2019-03-06T01:36:55.563Z,100664.80
2019-03-06T01:39:44.864Z,100652.88
2019-03-06T01:42:32.239Z,100649.68
2019-03-06T01:45:05.654Z,100641.45
2019-03-06T01:47:33.634Z,100637.34
2019-03-06T01:50:03.395Z,100624.45
2019-03-06T01:52:31.197Z,100618.08
2019-03-06T01:54:59.268Z,100609.63
2019-03-06T01:57:27.266Z,100609.98
2019-03-06T01:59:55.288Z,100600.48
2019-03-06T02:02:23.318Z,100602.87
2019-03-06T02:04:51.113Z,100602.12
2019-03-06T02:07:19.025Z,100606.19
2019-03-06T02:09:46.988Z,100611.58
2019-03-06T02:12:14.830Z,100600.20
2019-03-06T02:14:42.612Z,100594.66
2019-03-06T02:17:10.588Z,100597.73
2019-03-06T02:19:38.665Z,100588.13
2019-03-06T02:22:06.759Z,100574.48
2019-03-06T02:24:34.543Z,100576.62
2019-03-06T02:27:02.506Z,100577.86
2019-03-06T02:29:30.287Z,100570.78
2019-03-06T02:31:58.066Z,100565.81
2019-03-06T02:34:27.130Z,100563.80
2019-03-06T02:36:54.991Z,100554.16
2019-03-06T02:39:22.795Z,100550.16
2019-03-06T02:41:50.952Z,100546.61
2019-03-06T02:44:18.722Z,100539.71
2019-03-06T02:46:46.674Z,100545.92
2019-03-06T02:49:14.792Z,100543.83
2019-03-06T02:51:42.560Z,100535.37
2019-03-06T02:54:10.523Z,100530.33
2019-03-06T02:56:38.479Z,100526.88
2019-03-06T02:59:24.304Z,100523.18
2019-03-06T03:02:11.877Z,100524.47
2019-03-06T03:04:55.031Z,100520.64
2019-03-06T03:07:23.179Z,100523.30
2019-03-06T03:09:50.955Z,100515.02
2019-03-06T03:12:19.070Z,100511.30
2019-03-06T03:14:46.942Z,100509.30
2019-03-06T03:17:14.890Z,100503.06
2019-03-06T03:19:42.644Z,100497.63
2019-03-06T03:22:10.426Z,100496.45
2019-03-06T03:24:38.375Z,100489.31
2019-03-06T03:27:06.361Z,100480.55
2019-03-06T03:29:34.160Z,100476.36
2019-03-06T03:32:02.215Z,100479.94
2019-03-06T03:34:30.281Z,100485.33
2019-03-06T03:36:58.243Z,100480.81
2019-03-06T03:39:26.009Z,100470.77
2019-03-06T03:41:53.806Z,100465.32
2019-03-06T03:44:21.859Z,100457.44
2019-03-06T03:46:49.655Z,100450.65
2019-03-06T03:49:17.652Z,100443.80
2019-03-06T03:51:45.778Z,100440.59
2019-03-06T03:54:13.755Z,100432.54
2019-03-06T03:56:41.559Z,100435.66
2019-03-06T03:59:09.500Z,100427.48
2019-03-06T04:01:37.478Z,100423.47
2019-03-06T04:04:05.269Z,100414.55
2019-03-06T04:06:33.213Z,100409.47
2019-03-06T04:09:01.125Z,100414.22
2019-03-06T04:11:29.063Z,100404.07
2019-03-06T04:13:57.140Z,100406.91
2019-03-06T04:16:24.948Z,100392.24
2019-03-06T04:18:52.836Z,100403.50
2019-03-06T04:21:22.424Z,100395.98
2019-03-06T04:23:50.359Z,100399.37
2019-03-06T04:26:19.959Z,100395.59
2019-03-06T04:28:47.950Z,100386.70
2019-03-06T04:31:16.037Z,100385.09
2019-03-06T04:33:47.368Z,100382.02
2019-03-06T04:36:15.370Z,100364.34
2019-03-06T04:38:43.938Z,100367.44
2019-03-06T04:41:12.010Z,100365.86
2019-03-06T04:43:40.281Z,100361.89
2019-03-06T04:46:08.038Z,100347.64
2019-03-06T04:48:35.832Z,100341.59
2019-03-06T04:51:03.800Z,100348.86
2019-03-06T04:53:32.817Z,100343.48
2019-03-06T04:56:00.627Z,100341.70
2019-03-06T04:58:28.643Z,100340.13
2019-03-06T05:00:57.957Z,100330.98
2019-03-06T05:03:27.211Z,100329.72
2019-03-06T05:05:55.173Z,100326.69
2019-03-06T05:08:23.087Z,100317.46
2019-03-06T05:10:50.882Z,100320.25
2019-03-06T05:13:18.673Z,100319.95
2019-03-06T05:15:46.602Z,100313.62
2019-03-06T05:18:23.282Z,100317.40
2019-03-06T05:20:51.248Z,100299.80
2019-03-06T05:23:19.226Z,100294.00
2019-03-06T05:25:46.996Z,100284.42
2019-03-06T05:28:15.103Z,100273.16
2019-03-06T05:30:43.049Z,100266.45
2019-03-06T05:33:12.366Z,100265.07
2019-03-06T05:36:13.271Z,100263.97
2019-03-06T05:38:47.770Z,100255.81
2019-03-06T05:41:16.077Z,100257.03
2019-03-06T05:43:44.152Z,100250.26
2019-03-06T05:46:12.925Z,100251.77
2019-03-06T05:48:40.918Z,100248.00
2019-03-06T05:51:08.933Z,100236.54
2019-03-06T05:53:37.124Z,100233.70
2019-03-06T05:56:05.233Z,100235.64
2019-03-06T05:58:33.044Z,100231.45
2019-03-06T06:01:00.941Z,100221.36
2019-03-06T06:03:28.960Z,100212.02
2019-03-06T06:05:56.730Z,100204.55
2019-03-06T06:08:24.705Z,100199.55
2019-03-06T06:10:52.830Z,100188.59
2019-03-06T06:13:20.857Z,100198.04
2019-03-06T06:15:48.649Z,100195.66
2019-03-06T06:18:16.599Z,100184.98
2019-03-06T06:20:45.911Z,100183.85
2019-03-06T06:23:33.465Z,100188.17
2019-03-06T06:26:01.393Z,100179.38
2019-03-06T06:28:29.367Z,100181.37
2019-03-06T06:30:57.547Z,100174.94
2019-03-06T06:33:25.358Z,100171.83
2019-03-06T06:35:53.144Z,100160.46
2019-03-06T06:38:21.163Z,100159.55
2019-03-06T06:40:48.952Z,100157.94
2019-03-06T06:43:17.308Z,100148.34
2019-03-06T06:45:45.082Z,100144.23
2019-03-06T06:48:21.518Z,100149.31
2019-03-06T06:51:17.712Z,100144.29
2019-03-06T06:54:02.116Z,100134.38
2019-03-06T06:57:02.987Z,100127.59
2019-03-06T07:00:12.351Z,100117.53
2019-03-06T07:03:34.562Z,100112.31
2019-03-06T07:06:15.532Z,100110.05
2019-03-06T07:09:03.488Z,100101.48
2019-03-06T07:11:50.977Z,100094.02
2019-03-06T07:14:37.591Z,100078.70
2019-03-06T07:17:27.964Z,100079.18
2019-03-06T07:20:03.760Z,100061.56
2019-03-06T07:22:51.228Z,100047.28
2019-03-06T07:25:44.375Z,100044.86
2019-03-06T07:28:34.512Z,100026.38
2019-03-06T07:31:20.963Z,100021.98
2019-03-06T07:34:14.246Z,100040.94
2019-03-06T07:36:55.685Z,100025.53
2019-03-06T07:40:00.981Z,100023.03
2019-03-06T07:42:47.411Z,100017.98
2019-03-06T07:46:12.687Z,100024.05
2019-03-06T07:49:18.524Z,100017.03
2019-03-06T07:52:20.949Z,100001.66
2019-03-06T07:55:07.166Z,100014.70
2019-03-06T07:58:15.463Z,100017.80
2019-03-06T08:00:43.446Z,100006.00
2019-03-06T08:03:39.068Z,99992.36
2019-03-06T08:06:07.020Z,100001.67
2019-03-06T08:08:35.091Z,99996.91
2019-03-06T08:11:04.916Z,99992.22
2019-03-06T08:13:41.063Z,99996.14
2019-03-06T08:16:27.459Z,100000.33
2019-03-06T08:19:09.970Z,99989.02
2019-03-06T08:22:00.014Z,99986.91
2019-03-06T08:24:35.526Z,99995.68
2019-03-06T08:27:03.622Z,100006.22
2019-03-06T08:29:31.400Z,99996.51
2019-03-06T08:32:04.919Z,100009.02
2019-03-06T08:34:32.985Z,100006.02
2019-03-06T08:37:00.814Z,99996.25
2019-03-06T08:39:28.712Z,100000.93
2019-03-06T08:41:56.505Z,99999.89
2019-03-06T08:44:24.295Z,99997.48
2019-03-06T08:47:21.112Z,100004.11
2019-03-06T08:50:11.602Z,99994.69
2019-03-06T08:53:05.257Z,99997.90
2019-03-06T08:55:55.546Z,100003.06
2019-03-06T08:58:43.079Z,99999.98
2019-03-06T09:02:01.203Z,99992.13
2019-03-06T09:04:55.351Z,99989.02
2019-03-06T09:07:41.106Z,99990.23
2019-03-06T09:10:32.744Z,99984.59
2019-03-06T09:13:23.649Z,99988.34
2019-03-06T09:16:14.032Z,99986.38
2019-03-06T09:19:00.571Z,99970.48
2019-03-06T09:21:43.847Z,99968.31
2019-03-06T09:24:37.105Z,99969.34
2019-03-06T09:27:20.865Z,99958.98
2019-03-06T09:29:57.841Z,99941.48
2019-03-06T09:32:35.200Z,99941.13
2019-03-06T09:35:11.284Z,99943.59
2019-03-06T09:37:58.893Z,99946.41
2019-03-06T09:40:55.543Z,99943.37
2019-03-06T09:43:51.559Z,99952.32
2019-03-06T09:46:41.810Z,99948.98
2019-03-06T09:49:28.081Z,99940.92
2019-03-06T09:52:11.332Z,99931.11
2019-03-06T09:55:05.081Z,99925.87
2019-03-06T09:57:41.458Z,99917.62
2019-03-06T10:00:19.342Z,99913.47
2019-03-06T10:03:15.966Z,99909.78
2019-03-06T10:06:09.074Z,99904.98
2019-03-06T10:08:47.013Z,99908.98
2019-03-06T10:11:34.631Z,99900.48
2019-03-06T10:14:22.153Z,99890.56
2019-03-06T10:17:07.014Z,99886.88
2019-03-06T10:19:39.418Z,99860.70
2019-03-06T10:22:07.203Z,99871.69
2019-03-06T10:24:36.219Z,99876.94
2019-03-06T10:27:04.378Z,99865.94
2019-03-06T10:29:32.472Z,99867.16
2019-03-06T10:32:00.478Z,99862.60
2019-03-06T10:34:28.598Z,99855.86
2019-03-06T10:36:56.527Z,99863.66
2019-03-06T10:39:24.530Z,99852.76
2019-03-06T10:41:52.536Z,99847.66
2019-03-06T10:44:28.819Z,99840.83
2019-03-06T10:46:52.387Z,99843.92
2019-03-06T10:49:20.191Z,99835.31
2019-03-06T10:51:48.154Z,99836.13
2019-03-06T10:54:15.963Z,99850.76
2019-03-06T10:56:44.216Z,99849.20
2019-03-06T10:59:12.009Z,99843.47
2019-03-06T11:01:39.943Z,99833.59
2019-03-06T11:04:25.151Z,99837.75
2019-03-06T11:06:53.389Z,99824.61
2019-03-06T11:09:21.568Z,99826.73
2019-03-06T11:11:49.662Z,99830.17
2019-03-06T11:14:17.508Z,99815.08
2019-03-06T11:16:47.196Z,99822.94
2019-03-06T11:19:16.847Z,99813.69
2019-03-06T11:21:44.665Z,99813.52
2019-03-06T11:24:12.787Z,99811.22
2019-03-06T11:26:40.885Z,99810.97
2019-03-06T11:29:10.361Z,99803.98
2019-03-06T11:31:38.318Z,99804.02
2019-03-06T11:34:07.176Z,99804.88
2019-03-06T11:36:35.423Z,99793.39
2019-03-06T11:39:09.556Z,99783.17
2019-03-06T11:41:38.377Z,99787.09
2019-03-06T11:44:06.654Z,99771.93
2019-03-06T11:46:34.584Z,99773.58
2019-03-06T11:49:02.561Z,99764.18
2019-03-06T11:51:30.526Z,99771.50
2019-03-06T11:53:58.488Z,99765.63
2019-03-06T11:56:26.494Z,99765.46
2019-03-06T11:58:54.656Z,99772.06
2019-03-06T12:01:25.391Z,99767.88
2019-03-06T12:03:55.435Z,99769.28
2019-03-06T12:06:23.368Z,99768.92
2019-03-06T12:08:51.157Z,99763.58
2019-03-06T12:11:19.201Z,99754.41
2019-03-06T12:13:47.521Z,99760.13
2019-03-06T12:16:18.426Z,99757.87
2019-03-06T12:18:46.580Z,99756.56
2019-03-06T12:21:14.370Z,99758.52
2019-03-06T12:23:42.369Z,99753.19
2019-03-06T12:26:10.177Z,99744.31
2019-03-06T12:28:38.170Z,99742.99
2019-03-06T12:31:09.036Z,99739.68
2019-03-06T12:33:37.100Z,99734.09
2019-03-06T12:36:05.774Z,99723.84
2019-03-06T12:38:33.814Z,99715.16
2019-03-06T12:41:01.620Z,99715.67
2019-03-06T12:43:29.839Z,99706.50
2019-03-06T12:46:30.262Z,99706.39
2019-03-06T12:49:04.392Z,99699.05
2019-03-06T12:51:34.622Z,99696.47
2019-03-06T12:54:03.137Z,99689.72
2019-03-06T12:56:31.468Z,99680.11
2019-03-06T12:59:00.962Z,99668.91
2019-03-06T13:01:28.853Z,99670.69
2019-03-06T13:03:56.923Z,99654.05
2019-03-06T13:06:25.354Z,99663.70
2019-03-06T13:08:53.302Z,99665.50
2019-03-06T13:11:21.106Z,99665.59
2019-03-06T13:13:49.313Z,99664.44
2019-03-06T13:16:17.278Z,99654.53
2019-03-06T13:18:45.261Z,99653.33
2019-03-06T13:21:13.379Z,99652.33
2019-03-06T13:23:41.249Z,99646.51
2019-03-06T13:26:10.552Z,99643.68
2019-03-06T13:28:38.579Z,99639.31
2019-03-06T13:31:06.682Z,99631.83
2019-03-06T13:33:55.357Z,99638.55
2019-03-06T13:36:23.675Z,99627.53
2019-03-06T13:38:54.930Z,99622.50
2019-03-06T13:41:21.740Z,99620.45
2019-03-06T13:43:49.736Z,99614.96
2019-03-06T13:46:20.012Z,99610.73
2019-03-06T13:48:48.177Z,99613.73
2019-03-06T13:51:16.073Z,99613.13
2019-03-06T13:53:44.135Z,99610.27
2019-03-06T13:56:12.064Z,99607.89
2019-03-06T13:58:39.866Z,99610.83
2019-03-06T14:01:10.588Z,99617.05
2019-03-06T14:03:38.486Z,99615.62
2019-03-06T14:06:06.488Z,99613.36
2019-03-06T14:08:34.377Z,99617.22
2019-03-06T14:11:02.396Z,99610.64
2019-03-06T14:13:30.223Z,99598.84
2019-03-06T14:15:58.244Z,99600.45
2019-03-06T14:18:26.323Z,99602.78
2019-03-06T14:20:54.299Z,99600.22
2019-03-06T14:23:22.707Z,99590.56
2019-03-06T14:25:50.627Z,99588.47
2019-03-06T14:28:18.529Z,99575.80
2019-03-06T14:30:46.437Z,99588.41
2019-03-06T14:33:14.233Z,99576.81
2019-03-06T14:35:42.238Z,99576.11
2019-03-06T14:38:11.218Z,99567.58
2019-03-06T14:40:39.420Z,99570.27
2019-03-06T14:43:07.428Z,99570.12
2019-03-06T14:45:35.375Z,99563.16
2019-03-06T14:48:04.056Z,99567.15
2019-03-06T14:50:32.096Z,99560.30
2019-03-06T14:53:00.306Z,99558.98
2019-03-06T14:55:31.746Z,99545.89
2019-03-06T14:57:59.648Z,99546.58
2019-03-06T15:00:27.615Z,99545.89
2019-03-06T15:02:55.435Z,99539.31
2019-03-06T15:05:23.758Z,99535.45
2019-03-06T15:07:51.959Z,99534.52
2019-03-06T15:10:20.069Z,99527.82
2019-03-06T15:12:47.987Z,99533.53
2019-03-06T15:15:16.034Z,99526.92
2019-03-06T15:17:43.883Z,99518.45
2019-03-06T15:20:15.535Z,99512.47
2019-03-06T15:22:43.877Z,99515.44
2019-03-06T15:25:15.421Z,99508.42
2019-03-06T15:27:43.549Z,99506.17
2019-03-06T15:30:13.593Z,99510.73
2019-03-06T15:32:42.223Z,99503.69
2019-03-06T15:35:11.064Z,99506.20
2019-03-06T15:37:39.061Z,99508.56
2019-03-06T15:40:12.601Z,99495.70
2019-03-06T15:42:40.420Z,99504.61
2019-03-06T15:45:09.042Z,99495.38
2019-03-06T15:47:38.875Z,99505.13
2019-03-06T15:50:09.590Z,99498.16
2019-03-06T15:52:37.583Z,99498.85
2019-03-06T15:55:08.255Z,99490.51
2019-03-06T15:57:38.578Z,99493.44
2019-03-06T16:00:19.018Z,99491.36
2019-03-06T16:02:48.140Z,99484.75
2019-03-06T16:05:17.261Z,99477.58
2019-03-06T16:07:45.282Z,99473.73
2019-03-06T16:10:14.512Z,99471.30
2019-03-06T16:12:45.006Z,99459.06
2019-03-06T16:15:13.383Z,99469.08
2019-03-06T16:17:41.532Z,99457.88
2019-03-06T16:20:14.687Z,99452.75
2019-03-06T16:22:42.897Z,99451.44
2019-03-06T16:25:11.675Z,99450.89
2019-03-06T16:27:39.816Z,99454.61
2019-03-06T16:30:10.097Z,99448.02
2019-03-06T16:32:38.115Z,99445.05
2019-03-06T16:35:06.584Z,99434.36
2019-03-06T16:37:36.196Z,99445.05
2019-03-06T16:40:10.699Z,99448.34
2019-03-06T16:42:38.522Z,99451.95
2019-03-06T16:45:07.458Z,99450.74
2019-03-06T16:47:35.596Z,99449.75
2019-03-06T16:50:13.158Z,99454.97
2019-03-06T16:52:34.524Z,99466.17
2019-03-06T16:55:04.337Z,99463.08
2019-03-06T16:57:32.480Z,99458.23
2019-03-06T17:00:02.046Z,99464.17
2019-03-06T17:02:29.926Z,99461.14
2019-03-06T17:04:57.919Z,99455.62
2019-03-06T17:07:26.108Z,99456.45
2019-03-06T17:09:53.907Z,99461.05
2019-03-06T17:12:21.748Z,99450.80
2019-03-06T17:14:50.358Z,99456.51
2019-03-06T17:17:19.148Z,99456.42
2019-03-06T17:19:47.196Z,99437.75
2019-03-06T17:22:15.768Z,99462.78
2019-03-06T17:24:44.173Z,99451.84
2019-03-06T17:27:13.590Z,99460.70
2019-03-06T17:29:42.028Z,99462.55
2019-03-06T17:32:09.948Z,99453.83
2019-03-06T17:34:37.909Z,99461.47
2019-03-06T17:37:05.882Z,99450.41
2019-03-06T17:39:33.970Z,99455.80
2019-03-06T17:42:01.976Z,99456.81
2019-03-06T17:44:29.801Z,99454.31
2019-03-06T17:46:57.967Z,99442.92
2019-03-06T17:49:25.839Z,99441.58
2019-03-06T17:51:53.651Z,99445.33
2019-03-06T17:54:21.663Z,99438.78
2019-03-06T17:56:49.458Z,99443.02
2019-03-06T17:59:17.458Z,99435.94
2019-03-06T18:01:45.775Z,99438.27
2019-03-06T18:04:17.586Z,99433.92
2019-03-06T18:06:45.557Z,99422.52
2019-03-06T18:09:13.743Z,99425.41
2019-03-06T18:11:41.603Z,99427.31
2019-03-06T18:14:09.466Z,99423.80
2019-03-06T18:16:37.869Z,99426.82
2019-03-06T18:19:05.825Z,99434.70
2019-03-06T18:21:34.012Z,99439.00
2019-03-06T18:24:01.954Z,99438.90
2019-03-06T18:26:29.772Z,99441.19
2019-03-06T18:28:57.738Z,99432.13
2019-03-06T18:31:25.729Z,99428.41
2019-03-06T18:33:53.976Z,99430.98
2019-03-06T18:36:22.540Z,99422.02
2019-03-06T18:38:50.399Z,99428.86
2019-03-06T18:41:18.399Z,99437.66
2019-03-06T18:43:46.739Z,99422.34
2019-03-06T18:46:16.372Z,99424.63
2019-03-06T18:48:46.425Z,99424.42
2019-03-06T18:51:14.240Z,99422.94
2019-03-06T18:53:42.086Z,99422.98
2019-03-06T18:56:10.038Z,99426.38
2019-03-06T18:58:38.317Z,99407.96
2019-03-06T19:01:08.089Z,99409.69
2019-03-06T19:03:36.089Z,99403.42
2019-03-06T19:06:04.696Z,99405.13
2019-03-06T19:08:32.674Z,99412.13
2019-03-06T19:11:01.103Z,99400.57
2019-03-06T19:13:29.146Z,99404.48
2019-03-06T19:15:58.362Z,99405.52
2019-03-06T19:18:26.196Z,99388.59
2019-03-06T19:20:54.579Z,99388.75
2019-03-06T19:23:22.558Z,99401.13
2019-03-06T19:25:50.662Z,99400.69
2019-03-06T19:28:18.479Z,99395.48
2019-03-06T19:30:46.501Z,99394.58
2019-03-06T19:33:15.593Z,99402.25
2019-03-06T19:35:44.585Z,99400.42
2019-03-06T19:38:12.867Z,99394.42
2019-03-06T19:40:40.925Z,99396.83
2019-03-06T19:43:08.847Z,99392.83
2019-03-06T19:45:36.831Z,99389.84
2019-03-06T19:48:04.961Z,99388.08
2019-03-06T19:50:34.595Z,99385.35
2019-03-06T19:53:04.163Z,99381.86
2019-03-06T19:55:32.569Z,99383.08
2019-03-06T19:58:03.214Z,99373.57
2019-03-06T20:00:31.959Z,99362.19
2019-03-06T20:03:00.208Z,99372.42
2019-03-06T20:05:36.030Z,99379.84
2019-03-06T20:08:08.370Z,99369.11
2019-03-06T20:10:36.969Z,99360.15
2019-03-06T20:13:05.735Z,99372.86
2019-03-06T20:15:33.608Z,99365.78
2019-03-06T20:18:01.637Z,99364.67
2019-03-06T20:20:29.587Z,99370.55
2019-03-06T20:22:57.877Z,99361.86
2019-03-06T20:25:25.975Z,99351.56
2019-03-06T20:27:53.788Z,99355.95
2019-03-06T20:30:22.247Z,99355.39
2019-03-06T20:32:50.381Z,99351.05
2019-03-06T20:35:20.964Z,99358.64
2019-03-06T20:37:49.221Z,99357.05
2019-03-06T20:40:17.478Z,99349.07
2019-03-06T20:42:45.342Z,99351.89
2019-03-06T20:45:13.415Z,99351.17
2019-03-06T20:47:41.493Z,99350.94
2019-03-06T20:50:09.453Z,99342.55
2019-03-06T20:52:37.453Z,99341.82
2019-03-06T20:55:05.619Z,99334.87
2019-03-06T20:57:33.813Z,99334.94
2019-03-06T21:00:01.898Z,99330.28
2019-03-06T21:02:29.949Z,99336.31
2019-03-06T21:04:58.361Z,99322.87
2019-03-06T21:07:26.242Z,99328.15
2019-03-06T21:09:54.300Z,99326.54
2019-03-06T21:12:22.252Z,99322.94
2019-03-06T21:14:50.068Z,99325.23
2019-03-06T21:17:17.875Z,99326.34
2019-03-06T21:19:46.279Z,99328.61
2019-03-06T21:22:14.226Z,99326.84
2019-03-06T21:24:42.040Z,99328.24
2019-03-06T21:27:09.997Z,99322.12
2019-03-06T21:29:37.805Z,99325.53
2019-03-06T21:32:05.752Z,99311.12
2019-03-06T21:34:33.703Z,99317.16
2019-03-06T21:37:01.931Z,99313.75
2019-03-06T21:39:29.874Z,99308.17
2019-03-06T21:41:57.671Z,99311.69
2019-03-06T21:44:25.499Z,99302.05
2019-03-06T21:46:53.468Z,99303.03
2019-03-06T21:49:21.409Z,99303.09
2019-03-06T21:51:49.431Z,99290.47
2019-03-06T21:54:17.634Z,99289.03
2019-03-06T21:56:45.434Z,99286.90
2019-03-06T21:59:13.441Z,99278.77
2019-03-06T22:01:46.326Z,99274.70
2019-03-06T22:04:14.224Z,99272.22
2019-03-06T22:06:42.682Z,99261.97
2019-03-06T22:09:12.802Z,99263.81
2019-03-06T22:11:40.613Z,99261.16
2019-03-06T22:14:08.756Z,99267.18
2019-03-06T22:16:36.599Z,99260.13
2019-03-06T22:19:04.685Z,99259.22
2019-03-06T22:21:32.487Z,99255.73
2019-03-06T22:24:00.449Z,99248.72
2019-03-06T22:26:28.350Z,99254.47
2019-03-06T22:28:56.235Z,99256.28
2019-03-06T22:31:24.213Z,99255.78
2019-03-06T22:33:53.140Z,99248.36
2019-03-06T22:36:20.952Z,99242.38
2019-03-06T22:38:48.915Z,99236.51
2019-03-06T22:41:16.841Z,99233.62
2019-03-06T22:43:44.673Z,99225.79
2019-03-06T22:46:12.469Z,99230.13
2019-03-06T22:48:40.390Z,99229.17
2019-03-06T22:51:08.179Z,99222.16
2019-03-06T22:53:36.031Z,99221.30
2019-03-06T22:56:04.005Z,99229.17
2019-03-06T22:58:32.387Z,99220.72
2019-03-06T23:01:19.845Z,99223.75
2019-03-06T23:03:48.072Z,99213.91
2019-03-06T23:06:15.875Z,99212.24
2019-03-06T23:08:43.753Z,99211.59
2019-03-06T23:11:11.704Z,99213.52
2019-03-06T23:13:39.492Z,99217.73
2019-03-06T23:16:07.445Z,99213.43
2019-03-06T23:18:35.495Z,99219.31
2019-03-06T23:21:03.289Z,99212.34
2019-03-06T23:23:31.076Z,99202.16
2019-03-06T23:25:59.328Z,99199.78
2019-03-06T23:28:27.147Z,99187.00
2019-03-06T23:30:54.936Z,99193.94
2019-03-06T23:33:22.952Z,99187.55
2019-03-06T23:35:51.016Z,99177.55
2019-03-06T23:38:18.840Z,99180.05
2019-03-06T23:40:46.924Z,99171.61
2019-03-06T23:43:16.181Z,99162.65
2019-03-06T23:45:44.222Z,99166.96
2019-03-06T23:48:12.217Z,99168.63
2019-03-06T23:50:40.521Z,99166.67
2019-03-06T23:53:10.313Z,99169.75
2019-03-06T23:55:38.500Z,99160.34
2019-03-06T23:58:06.287Z,99161.91
